Time;durP1;ratioP1;P1;durP2;ratioP2;P2;SDS_P1;SDS_P2;PMS_P1;PMS_P2;Temp;Humidity;BMP_temperature;BMP_pressure;BME280_temperature;BME280_humidity;BME280_pressure;Samples;Min_cycle;Max_cycle;Signal;HPM_P1;HPM_P2
2022/05/02 00:00:14;;;;;;;;;;;11.60;99.90;;;;;;5074563;28;19934;-83
2022/05/02 00:02:39;;;;;;;;;;;11.60;99.90;;;;;;5079535;28;19913;-84
2022/05/02 00:05:05;;;;;;;;;;;11.60;99.90;;;;;;5080070;28;19919;-84
2022/05/02 00:07:31;;;;;;;;;;;11.60;99.90;;;;;;5078817;28;19952;-84
2022/05/02 00:09:56;;;;;;;;;;;11.60;99.90;;;;;;5079054;28;19927;-84
2022/05/02 00:12:22;;;;;;;;;;;11.60;99.90;;;;;;5076891;28;19917;-83
2022/05/02 00:14:47;;;;;;;;;;;11.50;99.90;;;;;;5061088;28;19975;-83
2022/05/02 00:17:13;;;;;;;;;;;11.50;99.90;;;;;;5081389;28;19924;-84
2022/05/02 00:19:38;;;;;;;;;;;11.50;99.90;;;;;;5062126;28;20233;-84
2022/05/02 00:22:04;;;;;;;;;;;11.50;99.90;;;;;;5083028;28;20002;-84
2022/05/02 00:24:29;;;;;;;;;;;11.40;99.90;;;;;;5079432;28;19913;-83
2022/05/02 00:26:56;;;;;;;;;;;11.30;99.90;;;;;;5080802;28;19940;-85
2022/05/02 00:29:22;;;;;;;;;;;11.30;99.90;;;;;;5074895;28;19916;-84
2022/05/02 00:31:47;;;;;;;;;;;11.20;99.90;;;;;;5084511;28;19928;-85
2022/05/02 00:34:13;;;;;;;;;;;11.20;99.90;;;;;;5085202;28;19913;-85
2022/05/02 00:36:39;;;;;;;;;;;11.20;99.90;;;;;;5084584;28;19919;-84
2022/05/02 00:39:04;;;;;;;;;;;11.20;99.90;;;;;;5081679;28;19913;-84
2022/05/02 00:41:30;;;;;;;;;;;11.20;99.90;;;;;;5084848;28;19912;-84
2022/05/02 00:43:55;;;;;;;;;;;11.20;99.90;;;;;;5085192;28;19912;-84
2022/05/02 00:46:21;;;;;;;;;;;11.20;99.90;;;;;;5090909;28;19900;-86
2022/05/02 00:48:47;;;;;;;;;;;11.10;1.00;;;;;;5094461;28;19913;-86
2022/05/02 00:51:13;;;;;;;;;;;11.00;1.00;;;;;;5095517;28;19948;-85
2022/05/02 00:53:39;;;;;;;;;;;10.90;1.00;;;;;;5075830;28;19940;-84
2022/05/02 00:56:06;;;;;;;;;;;10.80;1.00;;;;;;5083705;28;19935;-84
2022/05/02 00:58:33;;;;;;;;;;;10.80;1.00;;;;;;5083844;28;19912;-85
2022/05/02 01:01:00;;;;;;;;;;;10.70;1.00;;;;;;5084093;28;19959;-85
2022/05/02 01:03:25;;;;;;;;;;;10.80;1.00;;;;;;5083376;28;19959;-84
2022/05/02 01:08:35;;;;;;;;;;;10.80;1.00;;;;;;5081110;28;19923;-84
2022/05/02 01:11:01;;;;;;;;;;;10.80;1.00;;;;;;5070546;28;19999;-85
2022/05/02 01:13:40;;;;;;;;;;;10.80;1.00;;;;;;5078785;28;19920;-85
2022/05/02 01:16:10;;;;;;;;;;;10.80;1.00;;;;;;5079041;28;19916;-86
2022/05/02 01:18:35;;;;;;;;;;;10.80;1.00;;;;;;5082943;28;19927;-84
2022/05/02 01:21:05;;;;;;;;;;;10.80;1.00;;;;;;5071602;28;19912;-84
2022/05/02 01:23:31;;;;;;;;;;;10.70;1.00;;;;;;5070806;28;19936;-85
2022/05/02 01:25:56;;;;;;;;;;;10.70;1.00;;;;;;5074957;28;20126;-85
2022/05/02 01:28:23;;;;;;;;;;;10.70;1.00;;;;;;5071061;28;19927;-85
2022/05/02 01:30:48;;;;;;;;;;;10.60;1.00;;;;;;5080464;28;19912;-84
2022/05/02 01:33:14;;;;;;;;;;;10.60;1.00;;;;;;5078953;28;19944;-84
2022/05/02 01:35:39;;;;;;;;;;;10.60;1.00;;;;;;5076507;28;19927;-84
2022/05/02 01:38:05;;;;;;;;;;;10.50;1.00;;;;;;5074012;28;19943;-84
2022/05/02 01:40:30;;;;;;;;;;;10.50;1.00;;;;;;5072755;28;20303;-84
2022/05/02 01:42:55;;;;;;;;;;;10.50;1.00;;;;;;5066577;28;19917;-84
2022/05/02 01:45:21;;;;;;;;;;;10.40;1.00;;;;;;5075484;28;19916;-85
2022/05/02 01:47:46;;;;;;;;;;;10.40;1.00;;;;;;5057318;28;19912;-84
2022/05/02 01:50:12;;;;;;;;;;;10.40;1.00;;;;;;5070771;28;19960;-84
2022/05/02 01:52:37;;;;;;;;;;;10.40;1.00;;;;;;5076272;28;19916;-82
2022/05/02 01:55:03;;;;;;;;;;;10.30;1.00;;;;;;5067630;28;20033;-83
2022/05/02 01:57:28;;;;;;;;;;;10.30;1.00;;;;;;5072528;28;19963;-84
2022/05/02 01:59:54;;;;;;;;;;;10.30;1.00;;;;;;5054328;28;19969;-85
2022/05/02 02:02:19;;;;;;;;;;;10.30;1.00;;;;;;5068206;28;19913;-83
2022/05/02 02:07:29;;;;;;;;;;;10.30;1.00;;;;;;5073601;28;19919;-84
2022/05/02 02:09:54;;;;;;;;;;;10.30;1.00;;;;;;5075071;28;20366;-83
2022/05/02 02:12:20;;;;;;;;;;;10.30;1.00;;;;;;5072001;28;19920;-83
2022/05/02 02:14:45;;;;;;;;;;;10.30;1.00;;;;;;5067390;28;19913;-84
2022/05/02 02:17:10;;;;;;;;;;;10.30;1.00;;;;;;5076368;28;19917;-84
2022/05/02 02:19:36;;;;;;;;;;;10.30;1.00;;;;;;5067571;28;20365;-82
2022/05/02 02:22:16;;;;;;;;;;;10.30;1.00;;;;;;5067562;28;19920;-83
2022/05/02 02:24:42;;;;;;;;;;;10.30;1.00;;;;;;5074610;28;20003;-84
2022/05/02 02:27:08;;;;;;;;;;;10.30;1.00;;;;;;5072709;28;19913;-84
2022/05/02 02:29:33;;;;;;;;;;;10.20;1.00;;;;;;5068243;28;19970;-84
2022/05/02 02:31:58;;;;;;;;;;;10.30;1.00;;;;;;5076172;28;19960;-84
2022/05/02 02:34:24;;;;;;;;;;;10.30;1.00;;;;;;5067675;28;19947;-84
2022/05/02 02:36:49;;;;;;;;;;;10.30;1.00;;;;;;5071418;28;19988;-84
2022/05/02 02:39:15;;;;;;;;;;;10.30;1.00;;;;;;5076726;28;19916;-84
2022/05/02 02:41:40;;;;;;;;;;;10.30;1.00;;;;;;5069807;28;19913;-85
2022/05/02 02:44:06;;;;;;;;;;;10.30;1.00;;;;;;5080137;28;19928;-84
2022/05/02 02:46:31;;;;;;;;;;;10.30;1.00;;;;;;5071852;28;19913;-85
2022/05/02 02:48:57;;;;;;;;;;;10.30;1.00;;;;;;5077889;28;19942;-84
2022/05/02 02:51:22;;;;;;;;;;;10.30;1.00;;;;;;5067479;28;19916;-85
2022/05/02 02:53:48;;;;;;;;;;;10.30;1.00;;;;;;5073488;28;19917;-85
2022/05/02 02:56:14;;;;;;;;;;;10.40;1.00;;;;;;5056525;28;19912;-84
2022/05/02 02:58:39;;;;;;;;;;;10.30;1.00;;;;;;5076967;28;19940;-85
2022/05/02 03:01:05;;;;;;;;;;;10.40;1.00;;;;;;5075398;28;19916;-85
2022/05/02 03:03:31;;;;;;;;;;;10.40;1.00;;;;;;5054385;28;19935;-85
2022/05/02 03:06:02;;;;;;;;;;;10.30;1.00;;;;;;5069642;28;19987;-85
2022/05/02 03:08:29;;;;;;;;;;;10.30;1.00;;;;;;5056545;28;20380;-84
2022/05/02 03:10:55;;;;;;;;;;;10.30;1.00;;;;;;5068047;28;19913;-85
2022/05/02 03:13:20;;;;;;;;;;;10.30;1.00;;;;;;5071388;28;20011;-85
2022/05/02 03:15:47;;;;;;;;;;;10.30;1.00;;;;;;5069147;28;19917;-85
2022/05/02 03:18:12;;;;;;;;;;;10.20;1.00;;;;;;5074205;28;19922;-84
2022/05/02 03:20:38;;;;;;;;;;;10.20;1.00;;;;;;5069726;28;19952;-84
2022/05/02 03:23:03;;;;;;;;;;;10.10;1.00;;;;;;5069899;28;19924;-83
2022/05/02 03:25:29;;;;;;;;;;;10.10;1.00;;;;;;5071213;28;20000;-84
2022/05/02 03:27:54;;;;;;;;;;;10.10;1.00;;;;;;5067236;28;20346;-84
2022/05/02 03:30:19;;;;;;;;;;;10.10;1.00;;;;;;5069331;28;19917;-83
2022/05/02 03:32:45;;;;;;;;;;;10.00;1.00;;;;;;5076345;28;19931;-85
2022/05/02 03:35:10;;;;;;;;;;;10.00;1.00;;;;;;5072967;28;19978;-84
2022/05/02 03:37:36;;;;;;;;;;;10.00;1.00;;;;;;5077914;28;19912;-84
2022/05/02 03:40:02;;;;;;;;;;;10.00;1.00;;;;;;5061212;28;19920;-84
2022/05/02 03:42:27;;;;;;;;;;;10.00;8.30;;;;;;5072312;28;20360;-84
2022/05/02 03:44:53;;;;;;;;;;;10.00;1.00;;;;;;5069870;28;20422;-84
2022/05/02 03:47:18;;;;;;;;;;;10.00;10.70;;;;;;5053193;28;20023;-84
2022/05/02 03:49:44;;;;;;;;;;;10.00;1.00;;;;;;5076157;28;19913;-85
2022/05/02 03:52:09;;;;;;;;;;;10.00;27.50;;;;;;5074767;28;20234;-85
2022/05/02 03:54:35;;;;;;;;;;;10.00;26.80;;;;;;5071488;28;20424;-85
2022/05/02 03:57:00;;;;;;;;;;;10.00;1.30;;;;;;5073028;28;19955;-84
2022/05/02 03:59:26;;;;;;;;;;;10.00;7.40;;;;;;5067374;28;19909;-84
2022/05/02 04:01:51;;;;;;;;;;;9.90;1.00;;;;;;5073522;28;19912;-85
2022/05/02 04:04:17;;;;;;;;;;;9.90;1.00;;;;;;5067573;28;19972;-84
2022/05/02 04:06:42;;;;;;;;;;;9.90;1.00;;;;;;5079093;28;20351;-85
2022/05/02 04:09:08;;;;;;;;;;;10.00;1.00;;;;;;5086610;28;20135;-85
2022/05/02 04:11:33;;;;;;;;;;;10.00;1.00;;;;;;5082770;28;19916;-84
2022/05/02 04:13:59;;;;;;;;;;;9.90;1.00;;;;;;5077063;28;19925;-85
2022/05/02 04:16:24;;;;;;;;;;;10.00;1.00;;;;;;5075869;28;20047;-85
2022/05/02 04:18:50;;;;;;;;;;;10.00;1.00;;;;;;5091880;28;19920;-86
2022/05/02 04:21:15;;;;;;;;;;;10.00;1.00;;;;;;5080883;28;19921;-85
2022/05/02 04:23:41;;;;;;;;;;;10.00;1.00;;;;;;5083997;28;20423;-83
2022/05/02 04:26:06;;;;;;;;;;;10.00;1.00;;;;;;5082675;28;19938;-84
2022/05/02 04:28:34;;;;;;;;;;;10.00;1.00;;;;;;5074767;28;19975;-85
2022/05/02 04:30:59;;;;;;;;;;;10.00;1.00;;;;;;5057321;28;19936;-84
2022/05/02 04:33:25;;;;;;;;;;;10.00;1.00;;;;;;5071964;28;19919;-85
2022/05/02 04:35:50;;;;;;;;;;;10.10;1.00;;;;;;5074637;28;19913;-85
2022/05/02 04:38:16;;;;;;;;;;;10.10;1.00;;;;;;5071242;28;19938;-85
2022/05/02 04:40:41;;;;;;;;;;;10.20;1.00;;;;;;5071574;28;19927;-84
2022/05/02 04:43:06;;;;;;;;;;;10.20;1.00;;;;;;5072744;28;20447;-85
2022/05/02 04:45:32;;;;;;;;;;;10.20;1.00;;;;;;5076005;28;19913;-85
2022/05/02 04:47:57;;;;;;;;;;;10.30;1.00;;;;;;5052593;28;19920;-85
2022/05/02 04:50:23;;;;;;;;;;;10.30;1.00;;;;;;5059744;28;19917;-84
2022/05/02 04:52:49;;;;;;;;;;;10.40;1.00;;;;;;5083349;28;19912;-85
2022/05/02 04:55:14;;;;;;;;;;;10.40;1.00;;;;;;5075909;28;19926;-85
2022/05/02 04:57:40;;;;;;;;;;;10.50;1.00;;;;;;5051956;28;20011;-84
2022/05/02 05:00:06;;;;;;;;;;;10.50;1.00;;;;;;5076045;28;20300;-84
2022/05/02 05:02:31;;;;;;;;;;;10.60;1.00;;;;;;5070494;28;19923;-84
2022/05/02 05:04:57;;;;;;;;;;;10.60;1.00;;;;;;5070980;28;19925;-85
2022/05/02 05:07:22;;;;;;;;;;;10.70;1.00;;;;;;5055374;28;19912;-85
2022/05/02 05:09:48;;;;;;;;;;;10.80;1.00;;;;;;5077333;28;19917;-83
2022/05/02 05:12:13;;;;;;;;;;;10.90;1.00;;;;;;5079785;28;20042;-85
2022/05/02 05:17:42;;;;;;;;;;;11.20;1.00;;;;;;5080837;28;19981;-84
2022/05/02 05:20:19;;;;;;;;;;;11.40;1.00;;;;;;5084613;28;19980;-84
2022/05/02 05:22:51;;;;;;;;;;;11.50;1.00;;;;;;5082882;28;19912;-84
2022/05/02 05:25:35;;;;;;;;;;;11.70;1.00;;;;;;5062380;28;19916;-84
2022/05/02 05:28:06;;;;;;;;;;;11.70;1.00;;;;;;5078058;28;19919;-84
2022/05/02 05:30:42;;;;;;;;;;;11.90;1.00;;;;;;5079884;28;19916;-84
2022/05/02 05:33:28;;;;;;;;;;;12.10;1.00;;;;;;5095682;28;19919;-84
2022/05/02 05:36:01;;;;;;;;;;;12.20;1.00;;;;;;5074067;28;19913;-86
2022/05/02 05:38:37;;;;;;;;;;;12.40;99.90;;;;;;5083118;28;19913;-86
2022/05/02 05:41:11;;;;;;;;;;;12.70;99.90;;;;;;5087244;28;19927;-87
2022/05/02 05:43:54;;;;;;;;;;;12.80;99.90;;;;;;5085278;28;19919;-87
2022/05/02 05:46:20;;;;;;;;;;;13.00;99.90;;;;;;5080521;28;20015;-85
2022/05/02 05:49:21;;;;;;;;;;;13.20;99.90;;;;;;5083570;28;19917;-86
2022/05/02 05:51:48;;;;;;;;;;;13.40;99.90;;;;;;5020647;28;19913;-86
2022/05/02 05:54:29;;;;;;;;;;;13.50;99.90;;;;;;5080291;28;19920;-86
2022/05/02 05:57:00;;;;;;;;;;;13.50;99.90;;;;;;5077634;28;19931;-86
2022/05/02 05:59:41;;;;;;;;;;;13.70;99.90;;;;;;5081030;28;20185;-85
2022/05/02 06:02:20;;;;;;;;;;;13.70;99.90;;;;;;5081250;28;19939;-84
2022/05/02 06:04:49;;;;;;;;;;;13.80;99.90;;;;;;5082271;28;19939;-84
2022/05/02 06:07:19;;;;;;;;;;;13.80;99.90;;;;;;5085930;28;19961;-85
2022/05/02 06:09:44;;;;;;;;;;;14.00;99.90;;;;;;5083008;28;19913;-87
2022/05/02 06:12:12;;;;;;;;;;;14.10;99.90;;;;;;5081189;28;19916;-85
2022/05/02 06:18:27;;;;;;;;;;;14.20;99.90;;;;;;5075628;28;19915;-85
2022/05/02 06:20:11;;;;;;;;;;;14.40;99.90;;;;;;5075313;28;19923;-83
2022/05/02 06:22:38;;;;;;;;;;;14.50;99.90;;;;;;5081786;28;19917;-84
2022/05/02 06:25:04;;;;;;;;;;;14.50;99.90;;;;;;5080468;28;20153;-83
2022/05/02 06:27:31;;;;;;;;;;;14.50;99.90;;;;;;5079008;28;19980;-84
2022/05/02 06:29:57;;;;;;;;;;;14.60;99.90;;;;;;5081258;28;20395;-86
2022/05/02 06:32:23;;;;;;;;;;;14.70;99.90;;;;;;5087299;28;19921;-85
2022/05/02 06:34:48;;;;;;;;;;;14.70;99.90;;;;;;5084007;28;19952;-84
2022/05/02 06:37:49;;;;;;;;;;;14.80;99.90;;;;;;5087510;28;20358;-84
2022/05/02 06:40:24;;;;;;;;;;;14.80;99.90;;;;;;5048464;28;19913;-84
2022/05/02 06:42:52;;;;;;;;;;;15.00;99.90;;;;;;5072219;28;19912;-85
2022/05/02 06:45:23;;;;;;;;;;;15.10;99.90;;;;;;5089625;28;19912;-84
2022/05/02 06:47:54;;;;;;;;;;;15.20;99.90;;;;;;5087652;28;19919;-84
2022/05/02 06:50:22;;;;;;;;;;;15.40;99.90;;;;;;5087305;28;19944;-83
2022/05/02 06:52:48;;;;;;;;;;;15.50;99.90;;;;;;5078223;28;19913;-83
2022/05/02 06:55:22;;;;;;;;;;;15.50;99.90;;;;;;5080213;28;19912;-83
2022/05/02 06:58:06;;;;;;;;;;;15.60;99.90;;;;;;5081158;28;19919;-84
2022/05/02 07:00:36;;;;;;;;;;;15.60;99.90;;;;;;5086179;28;19923;-82
2022/05/02 07:03:20;;;;;;;;;;;15.70;99.90;;;;;;5086841;28;19970;-82
2022/05/02 07:05:54;;;;;;;;;;;15.90;99.90;;;;;;5084738;28;19943;-82
2022/05/02 07:08:26;;;;;;;;;;;16.00;99.90;;;;;;5076825;28;19912;-83
2022/05/02 07:10:56;;;;;;;;;;;16.20;99.90;;;;;;5084426;28;19917;-83
2022/05/02 07:13:33;;;;;;;;;;;16.50;99.90;;;;;;5082793;28;19912;-84
2022/05/02 07:15:59;;;;;;;;;;;16.80;99.90;;;;;;5085800;28;19917;-82
2022/05/02 07:18:30;;;;;;;;;;;17.20;99.90;;;;;;5102707;22;19988;-79
2022/05/02 07:21:14;;;;;;;;;;;17.80;99.90;;;;;;5096150;28;19912;-82
2022/05/02 07:23:51;;;;;;;;;;;18.70;99.90;;;;;;5091751;28;19938;-81
2022/05/02 07:26:21;;;;;;;;;;;19.40;99.90;;;;;;5095540;28;19916;-82
2022/05/02 07:28:47;;;;;;;;;;;20.10;99.90;;;;;;5079219;28;19924;-80
2022/05/02 07:31:14;;;;;;;;;;;20.60;99.90;;;;;;5074002;28;20377;-81
2022/05/02 07:33:40;;;;;;;;;;;20.80;99.90;;;;;;5060680;28;19975;-80
2022/05/02 07:36:06;;;;;;;;;;;21.00;99.90;;;;;;5059763;28;19935;-80
2022/05/02 07:38:33;;;;;;;;;;;21.40;99.90;;;;;;5059277;28;19913;-80
2022/05/02 07:43:46;;;;;;;;;;;22.50;99.90;;;;;;5081875;28;20378;-80
2022/05/02 07:46:11;;;;;;;;;;;22.80;99.90;;;;;;5076817;28;19943;-81
2022/05/02 07:48:39;;;;;;;;;;;25.50;99.90;;;;;;5079016;28;19920;-81
2022/05/02 07:51:09;;;;;;;;;;;28.00;99.90;;;;;;5075026;28;21652;-81
2022/05/02 07:53:36;;;;;;;;;;;30.40;99.90;;;;;;5075323;28;20383;-81
2022/05/02 07:56:01;;;;;;;;;;;32.10;99.90;;;;;;5059989;28;20003;-81
2022/05/02 07:58:28;;;;;;;;;;;33.40;99.90;;;;;;5075619;28;20324;-82
2022/05/02 08:00:54;;;;;;;;;;;35.40;99.90;;;;;;5057997;28;19913;-82
2022/05/02 08:03:21;;;;;;;;;;;36.70;99.90;;;;;;5057711;28;19912;-82
2022/05/02 08:05:49;;;;;;;;;;;37.80;99.90;;;;;;5059732;28;20291;-82
2022/05/02 08:08:23;;;;;;;;;;;37.20;99.90;;;;;;5059553;28;19970;-82
2022/05/02 08:11:00;;;;;;;;;;;36.50;99.90;;;;;;5079409;28;20008;-82
2022/05/02 08:13:26;;;;;;;;;;;36.10;99.90;;;;;;5059631;28;19951;-82
2022/05/02 08:16:01;;;;;;;;;;;36.30;99.90;;;;;;5076438;28;19920;-82
2022/05/02 08:18:26;;;;;;;;;;;36.90;99.90;;;;;;5077728;28;19920;-82
2022/05/02 08:21:07;;;;;;;;;;;37.90;99.90;;;;;;5078959;28;19958;-82
2022/05/02 08:29:30;;;;;;;;;;;40.00;99.90;;;;;;5081014;28;19946;-82
2022/05/02 08:32:04;;;;;;;;;;;41.50;99.90;;;;;;5074355;28;19965;-82
2022/05/02 08:34:33;;;;;;;;;;;41.50;99.90;;;;;;5079105;28;19916;-82
2022/05/02 08:37:21;;;;;;;;;;;42.30;99.90;;;;;;5059965;28;19912;-82
2022/05/02 08:40:05;;;;;;;;;;;42.30;99.90;;;;;;5058932;28;19923;-82
2022/05/02 08:42:41;;;;;;;;;;;41.80;99.90;;;;;;5049175;28;19935;-82
2022/05/02 08:45:26;;;;;;;;;;;42.50;99.90;;;;;;5079485;28;20417;-82
2022/05/02 08:47:55;;;;;;;;;;;42.00;99.90;;;;;;5076979;28;19909;-82
2022/05/02 08:50:26;;;;;;;;;;;43.00;99.90;;;;;;5060278;28;19916;-82
2022/05/02 08:53:10;;;;;;;;;;;43.30;99.90;;;;;;5064140;28;19971;-82
2022/05/02 08:55:45;;;;;;;;;;;43.80;99.90;;;;;;5064537;28;19917;-82
2022/05/02 08:58:37;;;;;;;;;;;43.90;99.90;;;;;;5063784;28;19913;-82
2022/05/02 09:01:21;;;;;;;;;;;44.40;99.90;;;;;;5061650;28;19921;-82
2022/05/02 09:04:05;;;;;;;;;;;44.20;99.90;;;;;;5075516;28;19928;-82
2022/05/02 09:06:46;;;;;;;;;;;44.40;99.90;;;;;;5058180;28;20051;-82
2022/05/02 09:09:30;;;;;;;;;;;43.80;99.90;;;;;;5081704;28;19921;-82
2022/05/02 09:11:59;;;;;;;;;;;43.30;99.90;;;;;;5082445;28;19917;-82
2022/05/02 09:14:27;;;;;;;;;;;43.70;99.90;;;;;;5083285;28;20436;-83
2022/05/02 09:16:59;;;;;;;;;;;43.50;99.90;;;;;;5083366;28;19919;-82
2022/05/02 09:19:30;;;;;;;;;;;43.80;99.90;;;;;;5077637;28;19916;-82
2022/05/02 09:22:01;;;;;;;;;;;44.10;99.90;;;;;;5066891;28;19923;-82
2022/05/02 09:24:37;;;;;;;;;;;43.80;99.90;;;;;;5064503;28;19991;-81
2022/05/02 09:27:11;;;;;;;;;;;43.90;99.90;;;;;;5086817;28;19920;-81
2022/05/02 09:29:49;;;;;;;;;;;44.30;99.90;;;;;;5065869;28;19920;-81
2022/05/02 09:32:23;;;;;;;;;;;44.20;99.90;;;;;;5082082;28;19912;-81
2022/05/02 09:34:59;;;;;;;;;;;44.10;99.90;;;;;;5068837;28;19908;-82
2022/05/02 09:37:37;;;;;;;;;;;44.20;99.90;;;;;;5080703;28;19912;-82
2022/05/02 09:40:04;;;;;;;;;;;44.40;99.90;;;;;;5088387;28;19920;-82
2022/05/02 09:42:40;;;;;;;;;;;44.30;99.90;;;;;;5074990;28;19913;-81
2022/05/02 09:49:33;;;;;;;;;;;43.30;99.90;;;;;;5074363;28;19959;-82
2022/05/02 09:51:22;;;;;;;;;;;43.10;99.90;;;;;;5075024;28;19932;-81
2022/05/02 09:53:57;;;;;;;;;;;43.20;99.90;;;;;;5062323;28;19919;-81
2022/05/02 09:56:38;;;;;;;;;;;43.30;99.90;;;;;;5081199;28;19958;-81
2022/05/02 09:59:08;;;;;;;;;;;42.90;99.90;;;;;;5075605;28;19920;-82
2022/05/02 10:01:34;;;;;;;;;;;43.10;99.90;;;;;;5082094;28;19917;-82
2022/05/02 10:04:18;;;;;;;;;;;43.10;99.90;;;;;;5081397;28;19912;-80
2022/05/02 10:06:58;;;;;;;;;;;43.10;99.90;;;;;;5063314;28;19947;-79
2022/05/02 10:09:32;;;;;;;;;;;43.30;99.90;;;;;;5076842;28;19946;-79
2022/05/02 10:12:12;;;;;;;;;;;43.20;99.90;;;;;;5085636;28;19978;-80
2022/05/02 10:14:56;;;;;;;;;;;43.30;99.90;;;;;;5064140;28;19912;-80
2022/05/02 10:17:50;;;;;;;;;;;43.30;99.90;;;;;;5062141;28;19917;-80
2022/05/02 10:20:16;;;;;;;;;;;43.00;99.90;;;;;;5078046;28;19965;-80
2022/05/02 10:22:48;;;;;;;;;;;42.60;99.90;;;;;;5082581;28;20159;-80
2022/05/02 10:25:16;;;;;;;;;;;41.50;99.90;;;;;;5074181;28;20046;-80
2022/05/02 10:28:09;;;;;;;;;;;40.50;99.90;;;;;;5072167;28;20101;-80
2022/05/02 10:30:42;;;;;;;;;;;40.50;99.90;;;;;;5072688;28;19917;-80
2022/05/02 10:33:12;;;;;;;;;;;41.00;99.90;;;;;;5057422;28;19919;-80
2022/05/02 10:35:41;;;;;;;;;;;41.40;99.90;;;;;;5069089;28;19935;-80
2022/05/02 10:38:08;;;;;;;;;;;41.50;99.90;;;;;;5077704;28;19947;-80
2022/05/02 10:40:34;;;;;;;;;;;41.70;99.90;;;;;;5061481;28;20362;-80
2022/05/02 10:43:03;;;;;;;;;;;40.80;99.90;;;;;;5076587;28;19991;-80
2022/05/02 10:45:28;;;;;;;;;;;40.50;99.90;;;;;;5081317;28;19919;-80
2022/05/02 10:47:54;;;;;;;;;;;41.00;99.90;;;;;;5081978;28;19912;-80
2022/05/02 10:50:34;;;;;;;;;;;41.50;99.90;;;;;;5081684;28;20041;-80
2022/05/02 10:53:18;;;;;;;;;;;42.00;99.90;;;;;;5080706;28;20025;-80
2022/05/02 10:55:56;;;;;;;;;;;40.70;99.90;;;;;;5078499;28;20007;-80
2022/05/02 10:58:22;;;;;;;;;;;40.90;99.90;;;;;;5063876;28;19917;-80
2022/05/02 11:01:02;;;;;;;;;;;41.20;99.90;;;;;;5060836;28;19971;-80
2022/05/02 11:03:34;;;;;;;;;;;41.40;99.90;;;;;;5064934;28;19919;-80
2022/05/02 11:06:02;;;;;;;;;;;41.50;99.90;;;;;;5081263;28;19919;-80
2022/05/02 11:08:33;;;;;;;;;;;41.10;99.90;;;;;;5082499;28;19912;-80
2022/05/02 11:11:03;;;;;;;;;;;41.10;99.90;;;;;;5082782;28;19912;-80
2022/05/02 11:13:47;;;;;;;;;;;41.00;99.90;;;;;;5058449;28;20056;-80
2022/05/02 11:16:13;;;;;;;;;;;41.00;99.90;;;;;;5079242;28;20431;-80
2022/05/02 11:22:31;;;;;;;;;;;39.40;99.90;;;;;;5045975;28;20559;-79
2022/05/02 11:25:06;;;;;;;;;;;38.80;99.90;;;;;;5015353;28;19913;-79
2022/05/02 11:27:51;;;;;;;;;;;38.50;99.90;;;;;;5066993;28;19913;-79
2022/05/02 11:30:22;;;;;;;;;;;38.50;99.90;;;;;;5065096;28;19917;-79
2022/05/02 11:32:51;;;;;;;;;;;38.50;99.90;;;;;;5058687;28;19912;-79
2022/05/02 11:35:22;;;;;;;;;;;38.20;99.90;;;;;;5061121;28;19951;-79
2022/05/02 11:38:09;;;;;;;;;;;37.10;99.90;;;;;;5076543;28;19913;-82
2022/05/02 11:40:41;;;;;;;;;;;36.30;99.90;;;;;;5069891;28;19917;-79
2022/05/02 11:43:07;;;;;;;;;;;35.50;99.80;;;;;;5077462;28;19926;-79
2022/05/02 11:45:41;;;;;;;;;;;35.70;99.90;;;;;;5074387;28;19959;-79
2022/05/02 11:48:25;;;;;;;;;;;36.20;99.90;;;;;;5061421;28;19955;-79
2022/05/02 11:50:54;;;;;;;;;;;36.70;99.90;;;;;;5071062;28;19920;-79
2022/05/02 11:53:21;;;;;;;;;;;36.90;99.90;;;;;;5074548;28;20023;-79
2022/05/02 11:55:47;;;;;;;;;;;36.70;99.90;;;;;;5068397;28;20005;-79
2022/05/02 11:58:24;;;;;;;;;;;36.80;99.90;;;;;;5076042;28;19913;-78
2022/05/02 12:01:04;;;;;;;;;;;37.00;99.90;;;;;;5055534;28;19966;-79
2022/05/02 12:03:50;;;;;;;;;;;37.00;99.90;;;;;;5053586;28;19923;-79
2022/05/02 12:06:15;;;;;;;;;;;36.60;99.90;;;;;;5052201;28;19919;-79
2022/05/02 12:08:44;;;;;;;;;;;36.70;99.90;;;;;;5051673;28;20003;-79
2022/05/02 12:11:11;;;;;;;;;;;36.70;99.90;;;;;;5056236;28;19920;-79
2022/05/02 12:13:38;;;;;;;;;;;36.70;99.90;;;;;;5054862;28;19999;-79
2022/05/02 12:16:16;;;;;;;;;;;36.70;99.90;;;;;;5054168;28;19939;-79
2022/05/02 12:18:46;;;;;;;;;;;36.80;99.90;;;;;;5052180;28;20282;-79
2022/05/02 12:21:31;;;;;;;;;;;36.10;99.90;;;;;;5056807;28;19967;-79
2022/05/02 12:23:58;;;;;;;;;;;35.80;99.90;;;;;;5074731;28;20318;-78
2022/05/02 12:26:23;;;;;;;;;;;35.80;99.90;;;;;;5075921;28;19942;-79
2022/05/02 12:28:49;;;;;;;;;;;35.10;99.90;;;;;;5074080;28;20280;-79
2022/05/02 12:31:15;;;;;;;;;;;34.70;99.90;;;;;;5050196;28;19920;-78
2022/05/02 12:33:43;;;;;;;;;;;35.00;99.90;;;;;;5049441;28;20376;-79
2022/05/02 12:36:19;;;;;;;;;;;34.80;99.90;;;;;;5072662;28;19958;-79
2022/05/02 12:38:54;;;;;;;;;;;34.50;99.90;;;;;;5060596;28;20343;-79
2022/05/02 12:41:28;;;;;;;;;;;34.70;99.90;;;;;;5068658;28;19912;-78
2022/05/02 12:43:54;;;;;;;;;;;34.50;99.90;;;;;;5080124;28;19919;-78
2022/05/02 12:46:23;;;;;;;;;;;34.50;99.90;;;;;;5048341;28;19908;-78
2022/05/02 12:48:55;;;;;;;;;;;34.60;99.90;;;;;;5070513;28;19931;-78
2022/05/02 12:51:27;;;;;;;;;;;34.80;99.90;;;;;;5057948;28;19912;-78
2022/05/02 12:54:15;;;;;;;;;;;34.70;99.90;;;;;;5059114;28;19947;-78
2022/05/02 13:02:37;;;;;;;;;;;34.60;99.90;;;;;;5067570;28;19942;-80
2022/05/02 13:05:07;;;;;;;;;;;34.60;99.90;;;;;;5081160;28;19971;-80
2022/05/02 13:07:51;;;;;;;;;;;33.60;99.90;;;;;;5080691;28;19965;-79
2022/05/02 13:10:24;;;;;;;;;;;32.70;98.90;;;;;;5072943;28;19935;-78
2022/05/02 13:12:56;;;;;;;;;;;32.70;99.50;;;;;;5076753;28;19912;-78
2022/05/02 13:15:22;;;;;;;;;;;32.60;99.90;;;;;;5076793;28;19951;-79
2022/05/02 13:17:50;;;;;;;;;;;32.70;99.90;;;;;;5078238;28;19920;-78
2022/05/02 13:20:16;;;;;;;;;;;31.90;99.00;;;;;;5074653;28;19912;-78
2022/05/02 13:22:57;;;;;;;;;;;32.00;99.60;;;;;;5074337;28;20002;-78
2022/05/02 13:25:42;;;;;;;;;;;32.10;99.90;;;;;;5050873;28;20003;-79
2022/05/02 13:28:09;;;;;;;;;;;31.90;99.90;;;;;;5077590;28;19912;-79
2022/05/02 13:30:34;;;;;;;;;;;31.90;99.90;;;;;;5060877;28;19942;-79
2022/05/02 13:33:03;;;;;;;;;;;31.90;99.90;;;;;;5076365;28;20615;-80
2022/05/02 13:35:29;;;;;;;;;;;31.70;99.90;;;;;;5076788;28;19919;-79
2022/05/02 13:38:01;;;;;;;;;;;31.50;99.90;;;;;;5074621;28;19991;-79
2022/05/02 13:40:36;;;;;;;;;;;31.30;99.90;;;;;;5061748;28;20484;-79
2022/05/02 13:43:04;;;;;;;;;;;31.50;99.90;;;;;;5058818;28;20354;-79
2022/05/02 13:45:38;;;;;;;;;;;31.40;99.90;;;;;;5068812;28;19912;-79
2022/05/02 13:48:06;;;;;;;;;;;31.40;99.90;;;;;;5075692;28;19916;-79
2022/05/02 13:50:38;;;;;;;;;;;31.30;99.90;;;;;;5072335;28;19920;-79
2022/05/02 13:53:18;;;;;;;;;;;31.30;99.90;;;;;;5077365;28;19935;-79
2022/05/02 13:55:44;;;;;;;;;;;31.00;99.90;;;;;;5058542;28;19926;-80
2022/05/02 13:58:29;;;;;;;;;;;30.70;99.90;;;;;;5081519;28;19916;-79
2022/05/02 14:04:02;;;;;;;;;;;30.30;99.90;;;;;;5075931;28;19927;-79
2022/05/02 14:06:36;;;;;;;;;;;29.90;99.40;;;;;;5071579;28;19912;-80
2022/05/02 14:09:02;;;;;;;;;;;29.60;99.90;;;;;;5057776;28;19955;-79
2022/05/02 14:11:28;;;;;;;;;;;29.40;99.10;;;;;;5069829;28;20321;-79
2022/05/02 14:14:08;;;;;;;;;;;29.30;98.80;;;;;;5057314;28;19988;-79
2022/05/02 14:16:35;;;;;;;;;;;29.30;98.80;;;;;;5056382;28;19920;-79
2022/05/02 14:19:01;;;;;;;;;;;29.10;98.90;;;;;;5056666;28;19920;-80
2022/05/02 14:21:26;;;;;;;;;;;28.80;98.30;;;;;;5071708;28;19970;-79
2022/05/02 14:23:53;;;;;;;;;;;28.60;99.40;;;;;;5055540;28;20373;-79
2022/05/02 14:26:19;;;;;;;;;;;28.50;98.20;;;;;;5065226;28;19942;-79
2022/05/02 14:28:48;;;;;;;;;;;28.30;98.20;;;;;;5065270;28;19951;-79
2022/05/02 14:31:14;;;;;;;;;;;28.10;98.80;;;;;;5061712;28;20012;-79
2022/05/02 14:33:40;;;;;;;;;;;27.80;98.50;;;;;;5073398;28;19916;-79
2022/05/02 14:36:14;;;;;;;;;;;27.50;98.40;;;;;;5077563;28;20061;-79
2022/05/02 14:38:40;;;;;;;;;;;27.30;98.50;;;;;;5072068;28;20367;-80
2022/05/02 14:41:06;;;;;;;;;;;26.80;97.50;;;;;;5055471;28;19917;-79
2022/05/02 14:43:32;;;;;;;;;;;26.30;97.30;;;;;;5074367;28;19920;-79
2022/05/02 14:45:57;;;;;;;;;;;25.80;96.80;;;;;;5076012;28;20426;-79
2022/05/02 14:48:23;;;;;;;;;;;25.30;96.30;;;;;;5074053;28;19912;-79
2022/05/02 14:50:55;;;;;;;;;;;25.00;96.20;;;;;;5065391;28;20332;-79
2022/05/02 14:53:21;;;;;;;;;;;24.90;96.20;;;;;;5076067;28;20343;-79
2022/05/02 14:55:55;;;;;;;;;;;24.90;97.20;;;;;;5054650;28;20003;-79
2022/05/02 14:58:22;;;;;;;;;;;25.10;97.80;;;;;;5054398;28;19912;-79
2022/05/02 15:00:49;;;;;;;;;;;25.30;98.50;;;;;;5043646;28;19920;-79
2022/05/02 15:03:15;;;;;;;;;;;25.40;99.50;;;;;;5053862;28;19920;-79
2022/05/02 15:05:42;;;;;;;;;;;25.50;99.80;;;;;;5073997;28;21244;-79
2022/05/02 15:08:11;;;;;;;;;;;25.50;99.90;;;;;;5070471;28;19958;-79
2022/05/02 15:11:09;;;;;;;;;;;25.40;99.90;;;;;;5054683;28;19916;-79
2022/05/02 15:13:53;;;;;;;;;;;25.60;99.90;;;;;;5027434;28;20017;-79